Ferron, Utah
Current Conditions -  °F | °C
As of 10:53 PM on Saturday 25 Oct 2014 (Local Time) from KPUC Reporting Station
Clear Clear  
Wind Chill: 57°   Ceiling: Unl
Heat Index: 57°   Visibility: 10mi
Dew Point: 31°   Wind: 7mph
Humidity: 37%   Direction: 60°ENE
Pressure: 30.07"   Gusts: NA
Location:  39.09°N, 111.13°W
Report Text: KPUC 260453Z AUTO 06006KT 10SM CLR 14/M01 A3007 RMK AO2 SLP138 T01391006 TSNO
Loading
Personal Weather Stations






























Interactive Weather Map
Tropical Storm Tracking
New forecast layout! Learn more

10-Day Weather Forecast

Advertisements
Track Severe Weather on mobile